Sunday, November 18, 2018, 10:03 AM EST
Back to Local

KFME, Fort Meade / Tipton

Location: Laurel, MD, United States Lat: 39.083
Local Time: 10:03 AM EST (15:03 GMT) Lon: -76.767
Time Zone: US/Eastern Elev: 150 ft

Show me the last for .
Show Decoded

2018-11-18 09:42 METAR KFME 181442Z AUTO 15004KT 10SM CLR 03/03 A3040 RMK AO1 =
2018-11-18 09:21 METAR KFME 181421Z AUTO 00000KT 7SM CLR 02/02 A3040 RMK AO1 =
2018-11-18 09:03 METAR KFME 181403Z AUTO 00000KT 7SM CLR 01/00 A3040 RMK AO1 =
2018-11-18 08:42 METAR KFME 181342Z AUTO 00000KT 4SM CLR 00/00 A3041 RMK AO1 =
2018-11-18 08:21 METAR KFME 181321Z AUTO 00000KT 4SM CLR 00/M01 A3040 RMK AO1 =
2018-11-18 08:03 METAR KFME 181303Z AUTO 00000KT 4SM CLR M01/M01 A3040 RMK AO1 =
2018-11-18 07:42 METAR KFME 181242Z AUTO 00000KT 4SM CLR M01/M02 A3040 RMK AO1 =
2018-11-18 07:21 METAR KFME 181221Z AUTO 00000KT 4SM CLR M02/M02 A3040 RMK AO1 =
2018-11-18 07:03 METAR KFME 181203Z AUTO 00000KT 4SM CLR M02/M02 A3040 RMK AO1 =
2018-11-18 06:42 METAR KFME 181142Z AUTO 00000KT 5SM CLR M02/M02 A3039 RMK AO1 =
2018-11-18 06:21 METAR KFME 181121Z AUTO 00000KT 5SM CLR M02/M02 A3039 RMK AO1 =
2018-11-18 06:03 METAR KFME 181103Z AUTO 00000KT 5SM CLR M02/M02 A3038 RMK AO1 =
2018-11-18 05:42 METAR KFME 181042Z AUTO 00000KT 5SM CLR M02/M02 A3038 RMK AO1 =
2018-11-18 05:21 METAR KFME 181021Z AUTO 00000KT 5SM CLR M02/M02 A3038 RMK AO1 =
2018-11-18 05:03 METAR KFME 181003Z AUTO 00000KT 7SM CLR M02/M02 A3038 RMK AO1 =
2018-11-18 04:42 METAR KFME 180942Z AUTO 00000KT 7SM CLR M02/M02 A3038 RMK AO1 =
2018-11-18 04:21 METAR KFME 180921Z AUTO 00000KT 7SM CLR M02/M02 A3037 RMK AO1 =
2018-11-18 04:03 METAR KFME 180903Z AUTO 00000KT 7SM CLR M01/M02 A3037 RMK AO1 =
2018-11-18 03:42 METAR KFME 180842Z AUTO 00000KT 7SM CLR M02/M02 A3037 RMK AO1 =
2018-11-18 03:21 METAR KFME 180821Z AUTO 00000KT 7SM CLR M02/M02 A3037 RMK AO1 =
2018-11-18 03:03 METAR KFME 180803Z AUTO 00000KT 7SM CLR M02/M02 A3037 RMK AO1 =
2018-11-18 02:42 METAR KFME 180742Z AUTO 00000KT 7SM CLR M02/M02 A3037 RMK AO1 =
2018-11-18 02:21 METAR KFME 180721Z AUTO 00000KT 7SM CLR M02/M02 A3037 RMK AO1 =
2018-11-18 02:03 METAR KFME 180703Z AUTO 00000KT 7SM CLR M02/M02 A3037 RMK AO1 =
2018-11-18 01:42 METAR KFME 180642Z AUTO 00000KT 7SM CLR M01/M02 A3037 RMK AO1 =
2018-11-18 01:21 METAR KFME 180621Z AUTO 00000KT 7SM CLR M01/M02 A3036 RMK AO1 =
2018-11-18 01:03 METAR KFME 180603Z AUTO 00000KT 7SM CLR M01/M02 A3036 RMK AO1 =
2018-11-18 00:42 METAR KFME 180542Z AUTO 00000KT 7SM CLR M01/M02 A3036 RMK AO1 =
2018-11-18 00:21 METAR KFME 180521Z AUTO 00000KT 5SM CLR M01/M01 A3036 RMK AO1 =
2018-11-18 00:03 METAR KFME 180503Z AUTO 00000KT 7SM CLR M01/M01 A3036 RMK AO1 =
2018-11-17 23:42 METAR KFME 180442Z AUTO 00000KT 5SM CLR M01/M01 A3036 RMK AO1 =
2018-11-17 23:21 METAR KFME 180421Z AUTO 00000KT 7SM CLR M01/M01 A3036 RMK AO1 =
2018-11-17 23:03 METAR KFME 180403Z AUTO 00000KT 7SM CLR M01/M01 A3036 RMK AO1 =
2018-11-17 22:42 METAR KFME 180342Z AUTO 00000KT 7SM CLR M01/M01 A3036 RMK AO1 =
2018-11-17 22:21 METAR KFME 180321Z AUTO 00000KT 10SM CLR M01/M01 A3036 RMK AO1 =
2018-11-17 22:03 METAR KFME 180303Z AUTO 00000KT 7SM CLR 00/M01 A3036 RMK AO1 =
2018-11-17 21:42 METAR KFME 180242Z AUTO 00000KT 10SM CLR 00/M01 A3036 RMK AO1 =
2018-11-17 21:21 METAR KFME 180221Z AUTO 00000KT 10SM CLR 00/M01 A3036 RMK AO1 =
2018-11-17 21:03 METAR KFME 180203Z AUTO 00000KT 10SM CLR 00/M01 A3035 RMK AO1 =
2018-11-17 20:21 METAR KFME 180121Z AUTO 00000KT 10SM CLR 00/M01 A3034 RMK AO1 =
2018-11-17 20:03 METAR KFME 180103Z AUTO 00000KT 10SM CLR 00/00 A3034 RMK AO1 =
2018-11-17 19:42 METAR KFME 180042Z AUTO 00000KT 10SM CLR 00/00 A3034 RMK AO1 =
2018-11-17 19:21 METAR KFME 180021Z AUTO 00000KT 10SM CLR 01/00 A3034 RMK AO1 =
2018-11-17 19:03 METAR KFME 180003Z AUTO 00000KT 10SM CLR 01/00 A3034 RMK AO1 =
2018-11-17 18:42 METAR KFME 172342Z AUTO 00000KT 10SM CLR 01/00 A3033 RMK AO1 =
2018-11-17 18:21 METAR KFME 172321Z AUTO 00000KT 10SM CLR 02/00 A3032 RMK AO1 =
2018-11-17 18:03 METAR KFME 172303Z AUTO 00000KT 10SM CLR 02/00 A3032 RMK AO1 =
2018-11-17 17:42 METAR KFME 172242Z AUTO 00000KT 10SM CLR 03/00 A3032 RMK AO1 =
2018-11-17 17:21 METAR KFME 172221Z AUTO 00000KT 10SM CLR 05/00 A3032 RMK AO1 =
2018-11-17 17:03 METAR KFME 172203Z AUTO 00000KT 10SM CLR 05/00 A3031 RMK AO1 =
2018-11-17 16:42 METAR KFME 172142Z AUTO 00000KT 10SM CLR 06/00 A3030 RMK AO1 =
2018-11-17 16:21 METAR KFME 172121Z AUTO 28004KT 10SM CLR 07/00 A3029 RMK AO1 =
2018-11-17 16:03 METAR KFME 172103Z AUTO 30005KT 10SM CLR 07/00 A3029 RMK AO1 =
2018-11-17 15:42 METAR KFME 172042Z AUTO 27006KT 10SM CLR 08/00 A3028 RMK AO1 =
2018-11-17 15:21 METAR KFME 172021Z AUTO 28007KT 10SM CLR 08/00 A3027 RMK AO1 =
2018-11-17 15:03 METAR KFME 172003Z AUTO 31006KT 10SM CLR 08/00 A3027 RMK AO1 =
2018-11-17 14:42 METAR KFME 171942Z AUTO 28003KT 10SM CLR 08/00 A3026 RMK AO1 =
2018-11-17 14:21 METAR KFME 171921Z AUTO 31005KT 10SM CLR 08/00 A3027 RMK AO1 =
2018-11-17 14:03 METAR KFME 171903Z AUTO 30006KT 10SM CLR 08/00 A3027 RMK AO1 =
2018-11-17 13:42 METAR KFME 171842Z AUTO 34007KT 310V020 10SM CLR 08/00 A3027 RMK AO1 =
2018-11-17 13:21 METAR KFME 171821Z AUTO 29008KT 10SM CLR 08/00 A3026 RMK AO1 =
2018-11-17 13:03 METAR KFME 171803Z AUTO 33005KT 10SM SCT037 08/00 A3027 RMK AO1 =
2018-11-17 12:42 METAR KFME 171742Z AUTO 29007G15KT 10SM BKN037 08/00 A3028 RMK AO1 =
2018-11-17 12:21 METAR KFME 171721Z AUTO 29008KT 260V320 10SM BKN037 08/00 A3029 RMK AO1 =
2018-11-17 12:03 METAR KFME 171703Z AUTO 27006KT 10SM BKN037 07/00 A3030 RMK AO1 =
2018-11-17 11:42 METAR KFME 171642Z AUTO 30006KT 10SM OVC037 07/00 A3030 RMK AO1 =
2018-11-17 11:21 METAR KFME 171621Z AUTO 31004KT 10SM OVC035 07/00 A3031 RMK AO1 =
2018-11-17 11:03 METAR KFME 171603Z AUTO 32009G16KT 280V000 10SM OVC035 06/00 A3032 RMK AO1 =
2018-11-17 10:42 METAR KFME 171542Z AUTO 31004KT 10SM OVC035 06/00 A3032 RMK AO1 =
2018-11-17 10:21 METAR KFME 171521Z AUTO 28009KT 10SM OVC035 06/00 A3032 RMK AO1 =
2018-11-17 10:03 METAR KFME 171503Z AUTO 29006G14KT 10SM OVC035 06/00 A3032 RMK AO1 =

Support USWX by starting your Amazon purchase here.